createdAt,value
2017-05-01T00:00:44.894Z,17.34
2017-05-01T00:03:13.938Z,16.48
2017-05-01T00:05:43.838Z,17.46
2017-05-01T00:11:08.907Z,17.56
2017-05-01T00:13:44.855Z,17.10
2017-05-01T00:16:15.177Z,17.68
2017-05-01T00:18:46.292Z,16.84
2017-05-01T00:23:54.143Z,16.72
2017-05-01T00:26:22.771Z,17.68
2017-05-01T00:28:53.371Z,16.78
2017-05-01T00:31:21.902Z,15.58
2017-05-01T00:33:58.112Z,15.60
2017-05-01T00:36:45.671Z,16.92
2017-05-01T00:39:27.540Z,16.46
2017-05-01T00:42:06.176Z,16.62
2017-05-01T00:44:44.684Z,16.52
2017-05-01T00:47:16.048Z,14.82
2017-05-01T00:49:46.399Z,17.00
2017-05-01T00:52:14.940Z,15.54
2017-05-01T00:54:53.394Z,16.66
2017-05-01T00:57:45.050Z,14.88
2017-05-01T01:03:14.933Z,14.72
2017-05-01T01:05:53.813Z,16.16
2017-05-01T01:08:43.116Z,14.48
2017-05-01T01:17:08.941Z,14.20
2017-05-01T01:19:38.961Z,13.78
2017-05-01T01:22:10.872Z,14.16
2017-05-01T01:24:40.320Z,13.82
2017-05-01T01:27:09.470Z,13.54
2017-05-01T01:29:44.919Z,13.74
2017-05-01T01:35:07.664Z,14.20
2017-05-01T01:37:48.385Z,12.86
2017-05-01T01:40:43.412Z,13.70
2017-05-01T01:43:12.701Z,13.06
2017-05-01T01:45:42.031Z,12.14
2017-05-01T01:48:11.308Z,15.14
2017-05-01T01:50:39.868Z,13.22
2017-05-01T01:59:04.244Z,12.66
2017-05-01T02:01:32.798Z,13.36
2017-05-01T02:04:01.474Z,12.86
2017-05-01T02:06:30.755Z,11.96
2017-05-01T02:08:59.973Z,12.84
2017-05-01T02:11:28.970Z,12.46
2017-05-01T02:13:57.513Z,12.32
2017-05-01T02:16:26.854Z,11.48
2017-05-01T02:18:55.322Z,11.96
2017-05-01T02:21:43.600Z,12.26
2017-05-01T02:27:10.601Z,11.66
2017-05-01T02:29:42.407Z,11.80
2017-05-01T02:32:11.697Z,12.04
2017-05-01T02:34:43.832Z,11.32
2017-05-01T02:37:15.585Z,11.58
2017-05-01T02:39:44.799Z,10.00
2017-05-01T02:42:13.185Z,12.36
2017-05-01T02:44:42.599Z,11.22
2017-05-01T02:47:14.443Z,11.02
2017-05-01T02:49:53.117Z,12.02
2017-05-01T02:52:35.379Z,11.38
2017-05-01T02:55:10.824Z,11.80
2017-05-01T02:57:40.316Z,10.86
2017-05-01T03:00:09.512Z,11.10
2017-05-01T03:02:44.550Z,12.12
2017-05-01T03:05:13.745Z,10.32
2017-05-01T03:07:52.973Z,10.60
2017-05-01T03:10:28.376Z,10.92
2017-05-01T03:13:00.780Z,9.62
2017-05-01T03:18:43.822Z,10.86
2017-05-01T03:24:06.021Z,10.92
2017-05-01T03:26:36.099Z,10.02
2017-05-01T03:29:05.938Z,10.24
2017-05-01T03:31:35.065Z,10.54
2017-05-01T03:34:13.725Z,11.20
2017-05-01T03:36:45.043Z,10.20
2017-05-01T03:39:14.920Z,10.28
2017-05-01T03:41:44.948Z,10.00
2017-05-01T03:47:08.388Z,10.98
2017-05-01T03:49:37.881Z,10.28
2017-05-01T03:52:06.314Z,9.74
2017-05-01T03:54:37.701Z,10.28
2017-05-01T03:57:07.766Z,10.44
2017-05-01T03:59:44.337Z,10.34
2017-05-01T04:02:18.833Z,9.02
2017-05-01T04:04:47.432Z,9.10
2017-05-01T04:07:17.561Z,9.38
2017-05-01T04:09:48.359Z,9.26
2017-05-01T04:12:20.852Z,10.46
2017-05-01T04:14:50.057Z,9.22
2017-05-01T04:20:15.598Z,8.86
2017-05-01T04:22:45.687Z,9.04
2017-05-01T04:25:17.419Z,8.70
2017-05-01T04:27:46.843Z,9.54
2017-05-01T04:30:22.934Z,9.26
2017-05-01T04:32:52.852Z,8.98
2017-05-01T04:35:22.201Z,9.72
2017-05-01T04:37:52.446Z,9.26
2017-05-01T04:40:44.486Z,9.58
2017-05-01T04:43:15.811Z,8.84
2017-05-01T04:45:54.343Z,9.32
2017-05-01T04:48:25.361Z,9.28
2017-05-01T04:50:56.872Z,8.14
2017-05-01T04:53:26.730Z,9.54
2017-05-01T04:56:02.301Z,8.76
2017-05-01T04:58:30.863Z,9.34
2017-05-01T05:01:06.116Z,9.50
2017-05-01T05:03:34.697Z,8.82
2017-05-01T05:06:04.137Z,9.22
2017-05-01T05:08:45.185Z,8.62
2017-05-01T05:11:16.663Z,8.44
2017-05-01T05:13:52.618Z,8.92
2017-05-01T05:16:22.740Z,9.18
2017-05-01T05:18:51.497Z,8.44
2017-05-01T05:21:23.561Z,9.14
2017-05-01T05:24:12.795Z,8.86
2017-05-01T05:26:53.800Z,9.26
2017-05-01T05:29:25.779Z,8.02
2017-05-01T05:32:02.107Z,9.36
2017-05-01T05:34:33.346Z,8.70
2017-05-01T05:37:01.746Z,8.76
2017-05-01T05:39:30.190Z,8.90
2017-05-01T05:42:02.110Z,8.22
2017-05-01T05:44:32.081Z,8.92
2017-05-01T05:50:01.537Z,8.90
2017-05-01T05:52:33.469Z,8.50
2017-05-01T05:55:02.601Z,8.48
2017-05-01T05:57:31.706Z,8.60
2017-05-01T06:00:00.919Z,8.08
2017-05-01T06:02:30.222Z,8.64
2017-05-01T06:07:52.269Z,7.22
2017-05-01T06:10:21.402Z,8.84
2017-05-01T06:12:49.916Z,7.30
2017-05-01T06:15:20.087Z,9.02
2017-05-01T06:17:55.631Z,7.88
2017-05-01T06:20:24.925Z,8.24
2017-05-01T06:22:53.625Z,8.74
2017-05-01T06:25:25.727Z,7.60
2017-05-01T06:27:55.664Z,8.88
2017-05-01T06:30:25.789Z,7.88
2017-05-01T06:32:54.167Z,7.96
2017-05-01T06:35:26.206Z,7.68
2017-05-01T06:37:55.436Z,8.90
2017-05-01T06:40:27.436Z,8.14
2017-05-01T06:42:56.607Z,8.28
2017-05-01T06:45:25.794Z,9.38
2017-05-01T06:47:55.174Z,8.14
2017-05-01T06:50:44.424Z,8.02
2017-05-01T06:53:33.641Z,6.70
2017-05-01T06:56:02.086Z,7.36
2017-05-01T06:58:30.472Z,8.18
2017-05-01T07:00:59.202Z,8.46
2017-05-01T07:03:27.830Z,8.26
2017-05-01T07:05:57.810Z,7.18
2017-05-01T07:08:26.962Z,7.68
2017-05-01T07:10:58.390Z,7.32
2017-05-01T07:13:26.816Z,7.80
2017-05-01T07:18:52.770Z,7.22
2017-05-01T07:21:28.033Z,6.58
2017-05-01T07:23:57.245Z,6.70
2017-05-01T07:26:26.358Z,7.20
2017-05-01T07:28:55.598Z,7.56
2017-05-01T07:31:24.939Z,6.76
2017-05-01T07:33:57.067Z,6.98
2017-05-01T07:36:25.532Z,7.50
2017-05-01T07:38:55.562Z,7.16
2017-05-01T07:41:44.440Z,7.00
2017-05-01T07:44:14.745Z,7.72
2017-05-01T07:46:46.453Z,7.90
2017-05-01T07:49:14.867Z,6.92
2017-05-01T07:51:44.063Z,7.10
2017-05-01T07:54:12.415Z,7.38
2017-05-01T07:56:40.820Z,7.52
2017-05-01T07:59:10.173Z,6.54
2017-05-01T08:01:40.410Z,7.56
2017-05-01T08:04:09.081Z,7.16
2017-05-01T08:06:39.011Z,6.82
2017-05-01T08:09:07.391Z,7.74
2017-05-01T08:11:46.183Z,7.70
2017-05-01T08:14:15.451Z,6.70
2017-05-01T08:16:44.441Z,6.98
2017-05-01T08:19:12.948Z,7.80
2017-05-01T08:21:42.860Z,7.92
2017-05-01T08:32:45.145Z,8.28
2017-05-01T08:38:06.676Z,8.50
2017-05-01T08:40:45.924Z,7.72
2017-05-01T08:43:15.151Z,8.22
2017-05-01T08:45:46.521Z,8.46
2017-05-01T08:51:12.573Z,7.98
2017-05-01T08:56:44.985Z,7.60
2017-05-01T08:59:15.132Z,8.00
2017-05-01T09:01:46.263Z,8.58
2017-05-01T09:04:14.645Z,8.08
2017-05-01T09:09:37.670Z,8.40
2017-05-01T09:12:06.900Z,8.06
2017-05-01T09:14:35.359Z,9.22
2017-05-01T09:17:05.317Z,9.94
2017-05-01T09:19:33.890Z,9.68
2017-05-01T09:22:03.731Z,8.54
2017-05-01T09:24:32.406Z,8.58
2017-05-01T09:27:03.712Z,8.78
2017-05-01T09:29:33.863Z,8.54
2017-05-01T09:32:03.167Z,8.24
2017-05-01T09:34:31.788Z,8.70
2017-05-01T09:39:56.701Z,7.94
2017-05-01T09:42:26.851Z,7.52
2017-05-01T09:44:56.113Z,7.32
2017-05-01T09:47:32.827Z,7.52
2017-05-01T09:53:06.099Z,7.72
2017-05-01T09:55:35.195Z,7.08
2017-05-01T09:58:05.945Z,7.28
2017-05-01T10:00:34.657Z,8.10
2017-05-01T10:03:03.030Z,7.40
2017-05-01T10:05:44.446Z,7.38
2017-05-01T10:08:12.825Z,7.90
2017-05-01T10:10:41.216Z,7.70
2017-05-01T10:13:09.649Z,6.66
2017-05-01T10:15:38.126Z,7.60
2017-05-01T10:21:01.831Z,9.82
2017-05-01T10:23:30.253Z,10.00
2017-05-01T10:25:59.668Z,9.38
2017-05-01T10:28:28.824Z,8.52
2017-05-01T10:30:57.242Z,9.40
2017-05-01T10:33:45.811Z,9.12
2017-05-01T10:36:14.204Z,9.64
2017-05-01T10:38:42.577Z,8.74
2017-05-01T10:41:10.999Z,10.68
2017-05-01T10:43:39.476Z,9.56
2017-05-01T10:49:03.307Z,10.77
2017-05-01T10:51:31.686Z,10.52
2017-05-01T10:54:00.135Z,9.48
2017-05-01T10:56:28.569Z,9.58
2017-05-01T10:58:56.984Z,8.88
2017-05-01T11:01:25.414Z,7.98
2017-05-01T11:03:53.826Z,8.88
2017-05-01T11:06:22.189Z,8.40
2017-05-01T11:08:51.428Z,8.70
2017-05-01T11:11:19.806Z,7.18
2017-05-01T11:13:48.928Z,7.62
2017-05-01T11:16:17.347Z,7.58
2017-05-01T11:18:45.757Z,7.72
2017-05-01T11:21:14.168Z,7.40
2017-05-01T11:23:42.532Z,7.12
2017-05-01T11:26:11.679Z,6.48
2017-05-01T11:28:40.059Z,6.42
2017-05-01T11:31:08.434Z,6.70
2017-05-01T11:33:36.850Z,6.26
2017-05-01T11:36:05.976Z,6.04
2017-05-01T11:38:34.341Z,5.82
2017-05-01T11:41:02.759Z,7.02
2017-05-01T11:43:31.140Z,6.06
2017-05-01T11:45:59.532Z,5.58
2017-05-01T11:48:48.938Z,5.10
2017-05-01T11:51:18.046Z,4.90
2017-05-01T11:53:46.418Z,5.18
2017-05-01T11:59:09.535Z,5.54
2017-05-01T12:01:45.581Z,5.26
2017-05-01T12:04:13.977Z,4.66
2017-05-01T12:06:45.389Z,5.02
2017-05-01T12:09:13.786Z,5.26
2017-05-01T12:11:45.475Z,5.46
2017-05-01T12:17:08.444Z,4.40
2017-05-01T12:19:45.115Z,4.84
2017-05-01T12:25:08.359Z,3.80
2017-05-01T12:27:44.969Z,3.54
2017-05-01T12:33:07.562Z,4.42
2017-05-01T12:35:44.851Z,3.66
2017-05-01T12:38:13.314Z,4.42
2017-05-01T12:40:42.488Z,3.98
2017-05-01T12:43:10.857Z,4.34
2017-05-01T12:45:39.211Z,6.02
2017-05-01T12:48:07.622Z,7.56
2017-05-01T12:53:30.180Z,8.32
2017-05-01T12:55:58.555Z,10.46
2017-05-01T12:58:26.937Z,9.92
2017-05-01T13:00:55.375Z,10.98
2017-05-01T13:03:24.821Z,9.76
2017-05-01T13:05:53.291Z,9.02
2017-05-01T13:08:22.056Z,10.02
2017-05-01T13:10:50.429Z,11.14
2017-05-01T13:13:18.909Z,12.28
2017-05-01T13:15:47.372Z,12.24
2017-05-01T13:21:11.005Z,9.76
2017-05-01T13:23:39.369Z,8.32
2017-05-01T13:26:08.465Z,7.32
2017-05-01T13:28:36.886Z,7.22
2017-05-01T13:31:05.995Z,6.98
2017-05-01T13:36:45.839Z,8.24
2017-05-01T13:39:14.298Z,12.16
2017-05-01T13:41:42.786Z,11.94
2017-05-01T13:47:05.298Z,14.80
2017-05-01T13:49:33.673Z,13.18
2017-05-01T13:52:02.060Z,11.54
2017-05-01T13:54:30.576Z,11.12
2017-05-01T14:02:48.049Z,6.58
2017-05-01T14:05:16.413Z,4.84
2017-05-01T14:07:44.795Z,5.10
2017-05-01T14:10:23.300Z,4.20
2017-05-01T14:12:51.676Z,4.36
2017-05-01T14:15:20.082Z,4.70
2017-05-01T14:17:48.450Z,3.76
2017-05-01T14:20:16.817Z,3.18
2017-05-01T14:22:45.216Z,3.84
2017-05-01T14:25:14.293Z,4.64
2017-05-01T14:27:45.639Z,3.78
2017-05-01T14:33:07.966Z,3.24
2017-05-01T14:35:37.070Z,3.50
2017-05-01T14:38:05.448Z,3.40
2017-05-01T14:40:33.848Z,3.16
2017-05-01T14:43:02.208Z,3.10
2017-05-01T14:45:44.615Z,3.72
2017-05-01T14:51:17.101Z,3.22
2017-05-01T14:53:45.502Z,3.36
2017-05-01T15:01:46.739Z,3.88
2017-05-01T15:09:46.940Z,3.52
2017-05-01T15:12:15.361Z,3.48
2017-05-01T15:14:45.142Z,3.32
2017-05-01T15:28:50.574Z,4.00
2017-05-01T15:34:19.852Z,3.94
2017-05-01T15:36:48.938Z,3.58
2017-05-01T15:45:06.555Z,2.84
2017-05-01T15:47:46.137Z,3.38
2017-05-01T15:58:56.978Z,3.84
2017-05-01T16:01:25.350Z,3.78
2017-05-01T16:03:56.781Z,3.68
2017-05-01T16:06:25.146Z,3.76
2017-05-01T16:08:54.221Z,3.72
2017-05-01T16:11:24.564Z,3.62
2017-05-01T16:13:52.966Z,3.30
2017-05-01T16:19:44.781Z,3.18
2017-05-01T16:25:07.877Z,3.58
2017-05-01T16:27:46.559Z,3.20
2017-05-01T16:30:19.992Z,2.92
2017-05-01T16:32:48.615Z,3.00
2017-05-01T16:35:21.197Z,2.90
2017-05-01T16:40:46.293Z,4.16
2017-05-01T16:54:51.161Z,3.10
2017-05-01T17:03:08.084Z,3.82
2017-05-01T17:05:45.636Z,3.34
2017-05-01T17:16:52.873Z,3.28
2017-05-01T17:19:44.579Z,3.34
2017-05-01T17:22:25.787Z,3.40
2017-05-01T17:24:54.168Z,3.68
2017-05-01T17:27:44.573Z,3.22
2017-05-01T17:30:13.028Z,3.10
2017-05-01T17:32:47.598Z,3.64
2017-05-01T17:35:16.709Z,3.42
2017-05-01T17:37:45.073Z,4.28
2017-05-01T17:40:14.235Z,3.48
2017-05-01T17:42:46.299Z,4.50
2017-05-01T17:48:08.150Z,4.20
2017-05-01T17:50:39.400Z,3.96
2017-05-01T17:53:08.476Z,3.52
2017-05-01T17:55:43.772Z,4.36
2017-05-01T18:01:07.379Z,3.82
2017-05-01T18:03:46.983Z,4.56
2017-05-01T18:06:17.589Z,3.96
2017-05-01T18:11:46.177Z,4.00
2017-05-01T18:17:08.682Z,4.04
2017-05-01T18:19:37.942Z,4.24
2017-05-01T18:22:07.384Z,4.10
2017-05-01T18:24:36.587Z,4.04
2017-05-01T18:27:12.493Z,4.68
2017-05-01T18:29:41.045Z,4.88
2017-05-01T18:32:12.256Z,6.40
2017-05-01T18:34:44.625Z,7.32
2017-05-01T18:37:14.511Z,7.42
2017-05-01T18:39:46.552Z,12.60
2017-05-01T18:45:07.405Z,31.54
2017-05-01T18:47:36.589Z,39.96
2017-05-01T18:50:08.909Z,46.22
2017-05-01T18:52:38.102Z,53.70
2017-05-01T18:58:00.460Z,62.32
2017-05-01T19:00:29.768Z,66.14
2017-05-01T19:02:58.141Z,74.04
2017-05-01T19:05:27.334Z,78.04
2017-05-01T19:07:57.113Z,79.96
2017-05-01T19:13:10.243Z,79.88
2017-05-01T19:15:38.821Z,84.46
2017-05-01T19:18:08.270Z,79.48
2017-05-01T19:20:47.186Z,90.84
2017-05-01T19:26:09.852Z,115.10
2017-05-01T19:28:38.949Z,125.12
2017-05-01T19:31:07.319Z,131.84
2017-05-01T19:33:37.377Z,140.26
2017-05-01T19:38:59.754Z,134.60
2017-05-01T19:41:44.777Z,137.14
2017-05-01T19:47:07.729Z,128.68
2017-05-01T19:49:45.757Z,133.58
2017-05-01T19:55:10.597Z,125.48
2017-05-01T19:57:41.855Z,131.48
2017-05-01T20:00:14.369Z,119.38
2017-05-01T20:02:44.566Z,121.02
2017-05-01T20:05:20.541Z,119.20
2017-05-01T20:07:50.525Z,115.32
2017-05-01T20:10:19.757Z,112.56
2017-05-01T20:12:51.770Z,112.24
2017-05-01T20:15:23.178Z,113.36
2017-05-01T20:17:51.918Z,111.76
2017-05-01T20:20:21.046Z,109.30
2017-05-01T20:22:51.000Z,104.92
2017-05-01T20:25:27.378Z,103.62
2017-05-01T20:27:56.567Z,107.10
2017-05-01T20:30:26.109Z,103.60
2017-05-01T20:32:55.380Z,106.54
2017-05-01T20:35:24.790Z,96.98
2017-05-01T20:37:56.765Z,100.88
2017-05-01T20:40:26.748Z,100.96
2017-05-01T20:42:55.238Z,103.02
2017-05-01T20:45:44.513Z,99.10
2017-05-01T20:51:10.813Z,99.32
2017-05-01T20:53:43.346Z,97.18
2017-05-01T20:56:14.676Z,92.60
2017-05-01T20:58:44.102Z,94.58
2017-05-01T21:01:15.500Z,93.10
2017-05-01T21:03:44.722Z,97.16
2017-05-01T21:06:16.452Z,88.72
2017-05-01T21:08:45.625Z,90.06
2017-05-01T21:11:15.772Z,90.50
2017-05-01T21:13:44.577Z,90.70
2017-05-01T21:16:14.718Z,86.70
2017-05-01T21:18:43.916Z,89.36
2017-05-01T21:21:12.306Z,89.44
2017-05-01T21:23:41.541Z,84.84
2017-05-01T21:26:12.792Z,85.62
2017-05-01T21:28:48.445Z,86.64
2017-05-01T21:31:17.739Z,80.94
2017-05-01T21:33:57.196Z,82.56
2017-05-01T21:36:25.650Z,81.92
2017-05-01T21:38:56.208Z,84.64
2017-05-01T21:41:26.190Z,79.12
2017-05-01T21:43:58.317Z,79.88
2017-05-01T21:46:29.542Z,77.72
2017-05-01T21:49:00.888Z,72.74
2017-05-01T21:51:36.232Z,78.44
2017-05-01T21:54:08.125Z,74.48
2017-05-01T21:56:37.248Z,73.78
2017-05-01T21:59:17.247Z,75.12
2017-05-01T22:01:52.632Z,74.80
2017-05-01T22:04:22.562Z,69.64
2017-05-01T22:06:51.854Z,68.20
2017-05-01T22:09:44.472Z,67.94
2017-05-01T22:12:13.743Z,70.04
2017-05-01T22:14:45.657Z,70.04
2017-05-01T22:17:17.682Z,68.98
2017-05-01T22:19:48.889Z,69.42
2017-05-01T22:22:18.230Z,63.16
2017-05-01T22:24:47.294Z,63.52
2017-05-01T22:27:26.673Z,61.18
2017-05-01T22:29:57.825Z,64.46
2017-05-01T22:32:28.696Z,62.14
2017-05-01T22:34:57.930Z,62.02
2017-05-01T22:37:46.310Z,60.16
2017-05-01T22:43:10.072Z,61.64
2017-05-01T22:45:45.807Z,59.04
2017-05-01T22:48:14.278Z,59.20
2017-05-01T22:50:42.653Z,58.44
2017-05-01T22:53:11.771Z,58.38
2017-05-01T22:55:40.395Z,56.88
2017-05-01T22:58:13.086Z,55.60
2017-05-01T23:00:42.169Z,55.16
2017-05-01T23:03:19.030Z,55.74
2017-05-01T23:05:51.148Z,54.38
2017-05-01T23:08:19.546Z,54.92
2017-05-01T23:10:59.101Z,52.08
2017-05-01T23:13:30.433Z,51.30
2017-05-01T23:16:01.660Z,50.66
2017-05-01T23:21:08.382Z,52.66
2017-05-01T23:23:36.765Z,48.60
2017-05-01T23:26:10.715Z,49.42
2017-05-01T23:28:39.815Z,51.80
2017-05-01T23:31:08.180Z,48.76
2017-05-01T23:33:37.650Z,49.12
2017-05-01T23:39:00.537Z,47.20
2017-05-01T23:41:30.724Z,46.06
2017-05-01T23:44:12.794Z,48.64
2017-05-01T23:46:47.430Z,46.64
2017-05-01T23:49:15.857Z,44.38
2017-05-01T23:51:44.989Z,44.66
2017-05-01T23:54:18.878Z,43.76
2017-05-01T23:56:48.138Z,44.00
2017-05-01T23:59:17.305Z,43.46
